sensor_id;sensor_type;location;lat;lon;timestamp;temperature;humidity
55135;DHT22;41031;44.750;11.308;2023-07-20T00:01:19;22.90;94.10
55135;DHT22;41031;44.750;11.308;2023-07-20T00:03:46;22.90;94.20
55135;DHT22;41031;44.750;11.308;2023-07-20T00:06:25;22.90;94.00
55135;DHT22;41031;44.750;11.308;2023-07-20T00:08:55;22.80;93.40
55135;DHT22;41031;44.750;11.308;2023-07-20T00:11:26;22.80;93.50
55135;DHT22;41031;44.750;11.308;2023-07-20T00:13:53;22.70;93.00
55135;DHT22;41031;44.750;11.308;2023-07-20T00:16:20;22.70;93.30
55135;DHT22;41031;44.750;11.308;2023-07-20T00:18:50;22.70;93.70
55135;DHT22;41031;44.750;11.308;2023-07-20T00:21:17;22.70;93.90
55135;DHT22;41031;44.750;11.308;2023-07-20T00:23:44;22.70;93.90
55135;DHT22;41031;44.750;11.308;2023-07-20T00:26:11;22.70;93.90
55135;DHT22;41031;44.750;11.308;2023-07-20T00:28:38;22.70;94.00
55135;DHT22;41031;44.750;11.308;2023-07-20T00:31:05;22.70;94.10
55135;DHT22;41031;44.750;11.308;2023-07-20T00:33:32;22.70;94.20
55135;DHT22;41031;44.750;11.308;2023-07-20T00:35:59;22.80;94.20
55135;DHT22;41031;44.750;11.308;2023-07-20T00:38:26;22.80;94.10
55135;DHT22;41031;44.750;11.308;2023-07-20T00:40:53;22.80;93.80
55135;DHT22;41031;44.750;11.308;2023-07-20T00:43:20;22.80;93.80
55135;DHT22;41031;44.750;11.308;2023-07-20T00:45:47;22.70;93.60
55135;DHT22;41031;44.750;11.308;2023-07-20T00:48:15;22.70;93.50
55135;DHT22;41031;44.750;11.308;2023-07-20T00:50:42;22.70;93.60
55135;DHT22;41031;44.750;11.308;2023-07-20T00:53:10;22.60;93.60
55135;DHT22;41031;44.750;11.308;2023-07-20T00:55:37;22.60;93.60
55135;DHT22;41031;44.750;11.308;2023-07-20T00:58:04;22.60;93.50
55135;DHT22;41031;44.750;11.308;2023-07-20T01:00:31;22.60;93.50
55135;DHT22;41031;44.750;11.308;2023-07-20T01:02:58;22.60;93.50
55135;DHT22;41031;44.750;11.308;2023-07-20T01:05:39;22.50;93.60
55135;DHT22;41031;44.750;11.308;2023-07-20T01:08:26;22.60;93.80
55135;DHT22;41031;44.750;11.308;2023-07-20T01:12:05;22.60;93.90
55135;DHT22;41031;44.750;11.308;2023-07-20T01:13:59;22.60;94.00
55135;DHT22;41031;44.750;11.308;2023-07-20T01:16:27;22.60;93.70
55135;DHT22;41031;44.750;11.308;2023-07-20T01:18:55;22.60;93.40
55135;DHT22;41031;44.750;11.308;2023-07-20T01:21:29;22.60;93.00
55135;DHT22;41031;44.750;11.308;2023-07-20T01:24:15;22.60;93.10
55135;DHT22;41031;44.750;11.308;2023-07-20T01:32:32;22.60;93.50
55135;DHT22;41031;44.750;11.308;2023-07-20T01:35:01;22.60;93.60
55135;DHT22;41031;44.750;11.308;2023-07-20T01:37:30;22.60;93.70
55135;DHT22;41031;44.750;11.308;2023-07-20T01:39:58;22.60;93.70
55135;DHT22;41031;44.750;11.308;2023-07-20T01:42:26;22.60;93.60
55135;DHT22;41031;44.750;11.308;2023-07-20T01:44:53;22.70;93.30
55135;DHT22;41031;44.750;11.308;2023-07-20T01:47:23;22.70;93.10
55135;DHT22;41031;44.750;11.308;2023-07-20T01:49:50;22.70;93.10
55135;DHT22;41031;44.750;11.308;2023-07-20T01:52:17;22.70;93.10
55135;DHT22;41031;44.750;11.308;2023-07-20T01:54:44;22.60;92.90
55135;DHT22;41031;44.750;11.308;2023-07-20T01:57:11;22.70;93.10
55135;DHT22;41031;44.750;11.308;2023-07-20T01:59:38;22.70;93.10
55135;DHT22;41031;44.750;11.308;2023-07-20T02:02:06;22.70;93.20
55135;DHT22;41031;44.750;11.308;2023-07-20T02:04:33;22.70;93.50
55135;DHT22;41031;44.750;11.308;2023-07-20T02:07:00;22.70;93.60
55135;DHT22;41031;44.750;11.308;2023-07-20T02:09:27;22.80;93.70
55135;DHT22;41031;44.750;11.308;2023-07-20T02:11:54;22.80;93.90
55135;DHT22;41031;44.750;11.308;2023-07-20T02:14:21;22.80;94.10
55135;DHT22;41031;44.750;11.308;2023-07-20T02:16:49;22.80;94.20
55135;DHT22;41031;44.750;11.308;2023-07-20T02:19:21;22.90;94.40
55135;DHT22;41031;44.750;11.308;2023-07-20T02:21:48;22.90;94.60
55135;DHT22;41031;44.750;11.308;2023-07-20T02:24:15;23.00;94.80
55135;DHT22;41031;44.750;11.308;2023-07-20T02:26:42;23.00;94.70
55135;DHT22;41031;44.750;11.308;2023-07-20T02:29:11;23.10;94.70
55135;DHT22;41031;44.750;11.308;2023-07-20T02:31:40;23.10;94.70
55135;DHT22;41031;44.750;11.308;2023-07-20T02:34:10;23.20;94.90
55135;DHT22;41031;44.750;11.308;2023-07-20T02:36:37;23.20;94.90
55135;DHT22;41031;44.750;11.308;2023-07-20T02:39:04;23.20;94.90
55135;DHT22;41031;44.750;11.308;2023-07-20T02:41:33;23.20;94.90
55135;DHT22;41031;44.750;11.308;2023-07-20T02:44:00;23.20;95.00
55135;DHT22;41031;44.750;11.308;2023-07-20T02:46:28;23.30;95.20
55135;DHT22;41031;44.750;11.308;2023-07-20T02:48:57;23.40;95.30
55135;DHT22;41031;44.750;11.308;2023-07-20T02:51:25;23.30;95.40
55135;DHT22;41031;44.750;11.308;2023-07-20T02:53:52;23.30;95.00
55135;DHT22;41031;44.750;11.308;2023-07-20T02:56:19;23.40;95.10
55135;DHT22;41031;44.750;11.308;2023-07-20T02:58:46;23.30;94.90
55135;DHT22;41031;44.750;11.308;2023-07-20T03:01:13;23.30;94.70
55135;DHT22;41031;44.750;11.308;2023-07-20T03:03:42;23.30;94.90
55135;DHT22;41031;44.750;11.308;2023-07-20T03:06:14;23.20;94.90
55135;DHT22;41031;44.750;11.308;2023-07-20T03:08:42;23.20;95.00
55135;DHT22;41031;44.750;11.308;2023-07-20T03:11:15;23.30;95.10
55135;DHT22;41031;44.750;11.308;2023-07-20T03:13:42;23.30;95.20
55135;DHT22;41031;44.750;11.308;2023-07-20T03:16:15;23.30;95.20
55135;DHT22;41031;44.750;11.308;2023-07-20T03:18:44;23.30;95.10
55135;DHT22;41031;44.750;11.308;2023-07-20T03:21:12;23.30;95.10
55135;DHT22;41031;44.750;11.308;2023-07-20T03:23:40;23.30;95.20
55135;DHT22;41031;44.750;11.308;2023-07-20T03:26:08;23.40;95.20
55135;DHT22;41031;44.750;11.308;2023-07-20T03:28:36;23.40;95.30
55135;DHT22;41031;44.750;11.308;2023-07-20T03:31:03;23.50;95.50
55135;DHT22;41031;44.750;11.308;2023-07-20T03:33:34;23.50;95.50
55135;DHT22;41031;44.750;11.308;2023-07-20T03:36:01;23.50;95.50
55135;DHT22;41031;44.750;11.308;2023-07-20T03:38:29;23.50;95.50
55135;DHT22;41031;44.750;11.308;2023-07-20T03:40:58;23.60;95.50
55135;DHT22;41031;44.750;11.308;2023-07-20T03:43:26;23.60;95.30
55135;DHT22;41031;44.750;11.308;2023-07-20T03:45:54;23.60;95.30
55135;DHT22;41031;44.750;11.308;2023-07-20T03:48:22;23.60;95.30
55135;DHT22;41031;44.750;11.308;2023-07-20T03:50:51;23.60;95.40
55135;DHT22;41031;44.750;11.308;2023-07-20T03:53:19;23.70;95.40
55135;DHT22;41031;44.750;11.308;2023-07-20T03:55:50;23.70;95.40
55135;DHT22;41031;44.750;11.308;2023-07-20T03:58:19;23.70;95.40
55135;DHT22;41031;44.750;11.308;2023-07-20T04:00:51;23.70;95.30
55135;DHT22;41031;44.750;11.308;2023-07-20T04:03:19;23.80;95.20
55135;DHT22;41031;44.750;11.308;2023-07-20T04:05:46;23.80;95.10
55135;DHT22;41031;44.750;11.308;2023-07-20T04:08:13;23.80;94.90
55135;DHT22;41031;44.750;11.308;2023-07-20T04:10:43;23.80;94.80
55135;DHT22;41031;44.750;11.308;2023-07-20T04:13:11;23.80;94.70
55135;DHT22;41031;44.750;11.308;2023-07-20T04:15:38;23.80;94.50
55135;DHT22;41031;44.750;11.308;2023-07-20T04:18:05;23.80;94.40
55135;DHT22;41031;44.750;11.308;2023-07-20T04:20:32;23.80;94.30
55135;DHT22;41031;44.750;11.308;2023-07-20T04:22:59;23.80;94.20
55135;DHT22;41031;44.750;11.308;2023-07-20T04:25:28;23.80;93.90
55135;DHT22;41031;44.750;11.308;2023-07-20T04:27:55;23.80;93.70
55135;DHT22;41031;44.750;11.308;2023-07-20T04:30:22;23.80;93.50
55135;DHT22;41031;44.750;11.308;2023-07-20T04:32:50;23.80;93.30
55135;DHT22;41031;44.750;11.308;2023-07-20T04:38:12;23.80;93.20
55135;DHT22;41031;44.750;11.308;2023-07-20T04:40:39;23.70;93.10
55135;DHT22;41031;44.750;11.308;2023-07-20T04:43:06;23.80;93.10
55135;DHT22;41031;44.750;11.308;2023-07-20T04:45:33;23.80;93.20
55135;DHT22;41031;44.750;11.308;2023-07-20T04:48:00;23.80;93.40
55135;DHT22;41031;44.750;11.308;2023-07-20T04:50:31;23.80;93.60
55135;DHT22;41031;44.750;11.308;2023-07-20T04:52:58;23.80;93.60
55135;DHT22;41031;44.750;11.308;2023-07-20T04:55:25;23.90;93.40
55135;DHT22;41031;44.750;11.308;2023-07-20T04:57:52;23.90;93.30
55135;DHT22;41031;44.750;11.308;2023-07-20T05:00:21;23.90;93.40
55135;DHT22;41031;44.750;11.308;2023-07-20T05:02:49;23.90;92.90
55135;DHT22;41031;44.750;11.308;2023-07-20T05:05:18;23.90;92.70
55135;DHT22;41031;44.750;11.308;2023-07-20T05:07:47;23.90;92.80
55135;DHT22;41031;44.750;11.308;2023-07-20T05:10:14;23.90;93.00
55135;DHT22;41031;44.750;11.308;2023-07-20T05:12:41;23.90;93.10
55135;DHT22;41031;44.750;11.308;2023-07-20T05:15:09;23.90;93.10
55135;DHT22;41031;44.750;11.308;2023-07-20T05:17:38;24.00;93.70
55135;DHT22;41031;44.750;11.308;2023-07-20T05:20:07;24.10;93.70
55135;DHT22;41031;44.750;11.308;2023-07-20T05:22:36;24.10;93.70
55135;DHT22;41031;44.750;11.308;2023-07-20T05:25:07;24.20;93.80
55135;DHT22;41031;44.750;11.308;2023-07-20T05:27:36;24.20;93.70
55135;DHT22;41031;44.750;11.308;2023-07-20T05:30:04;24.30;93.90
55135;DHT22;41031;44.750;11.308;2023-07-20T05:32:31;24.40;93.90
55135;DHT22;41031;44.750;11.308;2023-07-20T05:34:58;24.50;93.90
55135;DHT22;41031;44.750;11.308;2023-07-20T05:37:25;24.50;93.80
55135;DHT22;41031;44.750;11.308;2023-07-20T05:39:52;24.60;93.70
55135;DHT22;41031;44.750;11.308;2023-07-20T05:42:19;24.70;93.60
55135;DHT22;41031;44.750;11.308;2023-07-20T05:44:46;24.80;93.90
55135;DHT22;41031;44.750;11.308;2023-07-20T05:47:14;24.80;93.50
55135;DHT22;41031;44.750;11.308;2023-07-20T05:49:41;24.90;93.20
55135;DHT22;41031;44.750;11.308;2023-07-20T05:52:09;25.00;93.00
55135;DHT22;41031;44.750;11.308;2023-07-20T05:54:36;25.10;92.70
55135;DHT22;41031;44.750;11.308;2023-07-20T05:57:03;25.10;92.60
55135;DHT22;41031;44.750;11.308;2023-07-20T05:59:30;25.20;92.40
55135;DHT22;41031;44.750;11.308;2023-07-20T06:01:57;25.20;92.30
55135;DHT22;41031;44.750;11.308;2023-07-20T06:04:24;25.30;92.20
55135;DHT22;41031;44.750;11.308;2023-07-20T06:06:51;25.40;92.20
55135;DHT22;41031;44.750;11.308;2023-07-20T06:09:18;25.40;92.00
55135;DHT22;41031;44.750;11.308;2023-07-20T06:11:45;25.50;91.80
55135;DHT22;41031;44.750;11.308;2023-07-20T06:14:12;25.50;91.80
55135;DHT22;41031;44.750;11.308;2023-07-20T06:16:39;25.60;92.00
55135;DHT22;41031;44.750;11.308;2023-07-20T06:19:07;25.70;91.80
55135;DHT22;41031;44.750;11.308;2023-07-20T06:21:34;25.80;91.50
55135;DHT22;41031;44.750;11.308;2023-07-20T06:24:01;26.00;91.50
55135;DHT22;41031;44.750;11.308;2023-07-20T06:26:28;26.10;91.10
55135;DHT22;41031;44.750;11.308;2023-07-20T06:28:56;26.30;90.40
55135;DHT22;41031;44.750;11.308;2023-07-20T06:31:23;26.40;88.90
55135;DHT22;41031;44.750;11.308;2023-07-20T06:33:50;26.50;89.10
55135;DHT22;41031;44.750;11.308;2023-07-20T06:36:18;26.80;89.20
55135;DHT22;41031;44.750;11.308;2023-07-20T06:38:45;26.90;88.90
55135;DHT22;41031;44.750;11.308;2023-07-20T06:41:32;27.00;88.60
55135;DHT22;41031;44.750;11.308;2023-07-20T06:44:02;27.20;88.00
55135;DHT22;41031;44.750;11.308;2023-07-20T06:46:29;27.40;86.60
55135;DHT22;41031;44.750;11.308;2023-07-20T06:48:56;27.50;86.10
55135;DHT22;41031;44.750;11.308;2023-07-20T06:51:26;27.70;85.00
55135;DHT22;41031;44.750;11.308;2023-07-20T06:53:53;27.80;85.80
55135;DHT22;41031;44.750;11.308;2023-07-20T06:56:20;27.90;85.20
55135;DHT22;41031;44.750;11.308;2023-07-20T06:58:51;28.00;84.90
55135;DHT22;41031;44.750;11.308;2023-07-20T07:01:18;28.20;84.80
55135;DHT22;41031;44.750;11.308;2023-07-20T07:03:48;28.30;84.40
55135;DHT22;41031;44.750;11.308;2023-07-20T07:06:19;28.50;83.90
55135;DHT22;41031;44.750;11.308;2023-07-20T07:08:48;28.60;83.30
55135;DHT22;41031;44.750;11.308;2023-07-20T07:11:15;28.70;81.90
55135;DHT22;41031;44.750;11.308;2023-07-20T07:13:42;28.90;81.10
55135;DHT22;41031;44.750;11.308;2023-07-20T07:16:13;28.90;81.80
55135;DHT22;41031;44.750;11.308;2023-07-20T07:18:46;29.10;81.60
55135;DHT22;41031;44.750;11.308;2023-07-20T07:21:14;29.20;80.90
55135;DHT22;41031;44.750;11.308;2023-07-20T07:23:41;29.30;80.50
55135;DHT22;41031;44.750;11.308;2023-07-20T07:26:09;29.50;80.30
55135;DHT22;41031;44.750;11.308;2023-07-20T07:28:37;29.60;79.90
55135;DHT22;41031;44.750;11.308;2023-07-20T07:31:07;29.70;79.50
55135;DHT22;41031;44.750;11.308;2023-07-20T07:33:34;29.80;78.40
55135;DHT22;41031;44.750;11.308;2023-07-20T07:36:02;30.00;78.60
55135;DHT22;41031;44.750;11.308;2023-07-20T07:38:29;30.10;78.30
55135;DHT22;41031;44.750;11.308;2023-07-20T07:41:16;30.20;77.70
55135;DHT22;41031;44.750;11.308;2023-07-20T07:43:43;30.40;76.90
55135;DHT22;41031;44.750;11.308;2023-07-20T07:46:10;30.50;76.40
55135;DHT22;41031;44.750;11.308;2023-07-20T07:48:37;30.60;76.80
55135;DHT22;41031;44.750;11.308;2023-07-20T07:51:04;30.70;75.90
55135;DHT22;41031;44.750;11.308;2023-07-20T07:53:31;30.80;74.90
55135;DHT22;41031;44.750;11.308;2023-07-20T07:55:59;30.80;73.60
55135;DHT22;41031;44.750;11.308;2023-07-20T07:58:26;30.80;73.90
55135;DHT22;41031;44.750;11.308;2023-07-20T08:00:53;30.90;74.30
55135;DHT22;41031;44.750;11.308;2023-07-20T08:03:22;31.00;73.90
55135;DHT22;41031;44.750;11.308;2023-07-20T08:05:53;31.20;72.40
55135;DHT22;41031;44.750;11.308;2023-07-20T08:08:20;31.20;70.50
55135;DHT22;41031;44.750;11.308;2023-07-20T08:10:52;31.20;70.40
55135;DHT22;41031;44.750;11.308;2023-07-20T08:13:20;31.20;71.40
55135;DHT22;41031;44.750;11.308;2023-07-20T08:15:49;31.20;71.80
55135;DHT22;41031;44.750;11.308;2023-07-20T08:18:17;31.30;70.50
55135;DHT22;41031;44.750;11.308;2023-07-20T08:20:45;31.30;69.80
55135;DHT22;41031;44.750;11.308;2023-07-20T08:23:13;31.50;70.30
55135;DHT22;41031;44.750;11.308;2023-07-20T08:25:40;31.50;69.70
55135;DHT22;41031;44.750;11.308;2023-07-20T08:28:13;31.60;71.00
55135;DHT22;41031;44.750;11.308;2023-07-20T08:33:13;31.80;71.50
55135;DHT22;41031;44.750;11.308;2023-07-20T08:35:40;32.10;71.00
55135;DHT22;41031;44.750;11.308;2023-07-20T08:38:08;32.20;70.70
55135;DHT22;41031;44.750;11.308;2023-07-20T08:40:42;32.30;70.10
55135;DHT22;41031;44.750;11.308;2023-07-20T08:43:13;32.40;69.70
55135;DHT22;41031;44.750;11.308;2023-07-20T08:45:45;32.50;69.20
55135;DHT22;41031;44.750;11.308;2023-07-20T08:48:13;32.60;69.00
55135;DHT22;41031;44.750;11.308;2023-07-20T08:50:44;32.70;68.90
55135;DHT22;41031;44.750;11.308;2023-07-20T08:53:12;32.90;68.50
55135;DHT22;41031;44.750;11.308;2023-07-20T08:55:42;32.90;68.10
55135;DHT22;41031;44.750;11.308;2023-07-20T08:58:12;33.00;67.60
55135;DHT22;41031;44.750;11.308;2023-07-20T09:00:41;33.10;67.60
55135;DHT22;41031;44.750;11.308;2023-07-20T09:03:12;33.10;67.60
55135;DHT22;41031;44.750;11.308;2023-07-20T09:05:40;33.20;67.40
55135;DHT22;41031;44.750;11.308;2023-07-20T09:08:07;33.20;67.30
55135;DHT22;41031;44.750;11.308;2023-07-20T09:10:34;33.20;66.30
55135;DHT22;41031;44.750;11.308;2023-07-20T09:13:01;33.10;67.10
55135;DHT22;41031;44.750;11.308;2023-07-20T09:15:29;33.00;65.90
55135;DHT22;41031;44.750;11.308;2023-07-20T09:17:56;32.90;66.40
55135;DHT22;41031;44.750;11.308;2023-07-20T09:20:23;32.80;66.60
55135;DHT22;41031;44.750;11.308;2023-07-20T09:22:51;32.80;67.60
55135;DHT22;41031;44.750;11.308;2023-07-20T09:25:20;32.90;67.50
55135;DHT22;41031;44.750;11.308;2023-07-20T09:27:49;32.90;67.50
55135;DHT22;41031;44.750;11.308;2023-07-20T09:30:18;33.00;67.60
55135;DHT22;41031;44.750;11.308;2023-07-20T09:32:49;33.10;67.10
55135;DHT22;41031;44.750;11.308;2023-07-20T09:35:21;33.20;66.30
55135;DHT22;41031;44.750;11.308;2023-07-20T09:37:58;33.10;65.90
55135;DHT22;41031;44.750;11.308;2023-07-20T09:40:29;33.10;66.30
55135;DHT22;41031;44.750;11.308;2023-07-20T09:42:59;33.10;66.30
55135;DHT22;41031;44.750;11.308;2023-07-20T09:45:35;33.20;66.80
55135;DHT22;41031;44.750;11.308;2023-07-20T09:48:06;33.30;66.60
55135;DHT22;41031;44.750;11.308;2023-07-20T09:50:40;33.50;66.60
55135;DHT22;41031;44.750;11.308;2023-07-20T09:53:12;33.50;64.90
55135;DHT22;41031;44.750;11.308;2023-07-20T09:55:44;33.40;66.90
55135;DHT22;41031;44.750;11.308;2023-07-20T09:58:11;33.50;65.40
55135;DHT22;41031;44.750;11.308;2023-07-20T10:00:40;33.40;64.40
55135;DHT22;41031;44.750;11.308;2023-07-20T10:03:11;33.40;65.20
55135;DHT22;41031;44.750;11.308;2023-07-20T10:05:43;33.30;65.60
55135;DHT22;41031;44.750;11.308;2023-07-20T10:08:15;33.40;66.50
55135;DHT22;41031;44.750;11.308;2023-07-20T10:10:47;33.50;66.90
55135;DHT22;41031;44.750;11.308;2023-07-20T10:13:21;33.60;66.40
55135;DHT22;41031;44.750;11.308;2023-07-20T10:16:02;33.70;66.10
55135;DHT22;41031;44.750;11.308;2023-07-20T10:18:41;33.80;65.50
55135;DHT22;41031;44.750;11.308;2023-07-20T10:21:12;33.80;66.40
55135;DHT22;41031;44.750;11.308;2023-07-20T10:23:42;33.80;65.50
55135;DHT22;41031;44.750;11.308;2023-07-20T10:26:09;33.90;65.10
55135;DHT22;41031;44.750;11.308;2023-07-20T10:28:38;34.00;65.40
55135;DHT22;41031;44.750;11.308;2023-07-20T10:31:08;34.10;65.00
55135;DHT22;41031;44.750;11.308;2023-07-20T10:33:36;34.10;65.10
55135;DHT22;41031;44.750;11.308;2023-07-20T10:36:06;34.10;65.60
55135;DHT22;41031;44.750;11.308;2023-07-20T10:38:52;34.20;65.60
55135;DHT22;41031;44.750;11.308;2023-07-20T10:41:22;34.30;63.90
55135;DHT22;41031;44.750;11.308;2023-07-20T10:44:23;34.40;63.50
55135;DHT22;41031;44.750;11.308;2023-07-20T10:46:50;34.40;63.70
55135;DHT22;41031;44.750;11.308;2023-07-20T10:49:25;34.50;64.00
55135;DHT22;41031;44.750;11.308;2023-07-20T10:51:58;34.70;64.80
55135;DHT22;41031;44.750;11.308;2023-07-20T10:56:56;34.90;63.60
55135;DHT22;41031;44.750;11.308;2023-07-20T11:01:55;35.00;62.90
55135;DHT22;41031;44.750;11.308;2023-07-20T11:04:52;35.00;63.30
55135;DHT22;41031;44.750;11.308;2023-07-20T11:07:46;35.10;63.50
55135;DHT22;41031;44.750;11.308;2023-07-20T11:10:14;35.00;62.20
55135;DHT22;41031;44.750;11.308;2023-07-20T11:13:17;35.00;62.10
55135;DHT22;41031;44.750;11.308;2023-07-20T11:18:16;34.90;61.50
55135;DHT22;41031;44.750;11.308;2023-07-20T11:20:50;34.80;62.00
55135;DHT22;41031;44.750;11.308;2023-07-20T11:23:17;34.90;62.90
55135;DHT22;41031;44.750;11.308;2023-07-20T11:25:46;34.90;61.70
55135;DHT22;41031;44.750;11.308;2023-07-20T11:28:13;35.00;61.30
55135;DHT22;41031;44.750;11.308;2023-07-20T11:30:40;35.00;61.00
55135;DHT22;41031;44.750;11.308;2023-07-20T11:33:11;35.10;61.10
55135;DHT22;41031;44.750;11.308;2023-07-20T11:35:49;35.10;62.40
55135;DHT22;41031;44.750;11.308;2023-07-20T11:38:20;35.20;61.60
55135;DHT22;41031;44.750;11.308;2023-07-20T11:40:47;35.30;59.70
55135;DHT22;41031;44.750;11.308;2023-07-20T11:43:14;35.30;60.20
55135;DHT22;41031;44.750;11.308;2023-07-20T11:45:45;35.40;61.20
55135;DHT22;41031;44.750;11.308;2023-07-20T11:48:16;35.40;61.70
55135;DHT22;41031;44.750;11.308;2023-07-20T11:50:43;35.40;61.10
55135;DHT22;41031;44.750;11.308;2023-07-20T11:53:11;35.30;60.70
55135;DHT22;41031;44.750;11.308;2023-07-20T11:55:40;35.10;61.50
55135;DHT22;41031;44.750;11.308;2023-07-20T11:58:08;34.80;61.50
55135;DHT22;41031;44.750;11.308;2023-07-20T12:00:38;34.60;61.90
55135;DHT22;41031;44.750;11.308;2023-07-20T12:03:06;34.50;61.50
55135;DHT22;41031;44.750;11.308;2023-07-20T12:05:34;34.60;62.00
55135;DHT22;41031;44.750;11.308;2023-07-20T12:08:21;34.70;62.60
55135;DHT22;41031;44.750;11.308;2023-07-20T12:10:48;34.90;60.50
55135;DHT22;41031;44.750;11.308;2023-07-20T12:13:16;35.00;60.10
55135;DHT22;41031;44.750;11.308;2023-07-20T12:15:43;34.90;59.70
55135;DHT22;41031;44.750;11.308;2023-07-20T12:18:10;34.90;60.40
55135;DHT22;41031;44.750;11.308;2023-07-20T12:20:38;34.90;60.80
55135;DHT22;41031;44.750;11.308;2023-07-20T12:23:11;35.00;61.10
55135;DHT22;41031;44.750;11.308;2023-07-20T12:25:41;35.10;62.10
55135;DHT22;41031;44.750;11.308;2023-07-20T12:28:17;35.10;59.20
55135;DHT22;41031;44.750;11.308;2023-07-20T12:30:45;35.10;59.60
55135;DHT22;41031;44.750;11.308;2023-07-20T12:33:13;35.00;61.10
55135;DHT22;41031;44.750;11.308;2023-07-20T12:35:42;35.10;60.20
55135;DHT22;41031;44.750;11.308;2023-07-20T12:38:12;35.10;60.10
55135;DHT22;41031;44.750;11.308;2023-07-20T12:40:40;35.00;60.40
55135;DHT22;41031;44.750;11.308;2023-07-20T12:43:07;35.10;60.50
55135;DHT22;41031;44.750;11.308;2023-07-20T12:45:35;35.10;60.70
55135;DHT22;41031;44.750;11.308;2023-07-20T12:48:02;35.10;59.30
55135;DHT22;41031;44.750;11.308;2023-07-20T12:50:29;35.00;60.00
55135;DHT22;41031;44.750;11.308;2023-07-20T12:52:56;35.00;60.60
55135;DHT22;41031;44.750;11.308;2023-07-20T12:55:23;35.00;61.00
55135;DHT22;41031;44.750;11.308;2023-07-20T12:57:50;35.00;59.10
55135;DHT22;41031;44.750;11.308;2023-07-20T13:00:17;35.00;59.30
55135;DHT22;41031;44.750;11.308;2023-07-20T13:02:44;34.90;59.50
55135;DHT22;41031;44.750;11.308;2023-07-20T13:05:12;34.80;60.50
55135;DHT22;41031;44.750;11.308;2023-07-20T13:07:41;34.80;60.50
55135;DHT22;41031;44.750;11.308;2023-07-20T13:10:11;34.90;59.70
55135;DHT22;41031;44.750;11.308;2023-07-20T13:12:38;34.80;59.20
55135;DHT22;41031;44.750;11.308;2023-07-20T13:15:07;34.70;60.10
55135;DHT22;41031;44.750;11.308;2023-07-20T13:17:36;34.70;61.50
55135;DHT22;41031;44.750;11.308;2023-07-20T13:20:05;34.70;59.00
55135;DHT22;41031;44.750;11.308;2023-07-20T13:22:33;34.70;60.30
55135;DHT22;41031;44.750;11.308;2023-07-20T13:25:01;34.70;59.30
55135;DHT22;41031;44.750;11.308;2023-07-20T13:27:28;34.60;59.60
55135;DHT22;41031;44.750;11.308;2023-07-20T13:29:55;34.70;60.10
55135;DHT22;41031;44.750;11.308;2023-07-20T13:32:24;34.70;59.60
55135;DHT22;41031;44.750;11.308;2023-07-20T13:34:51;34.60;59.70
55135;DHT22;41031;44.750;11.308;2023-07-20T13:37:18;34.60;60.30
55135;DHT22;41031;44.750;11.308;2023-07-20T13:39:48;34.50;60.40
55135;DHT22;41031;44.750;11.308;2023-07-20T13:42:15;34.50;61.00
55135;DHT22;41031;44.750;11.308;2023-07-20T13:44:45;34.40;59.80
55135;DHT22;41031;44.750;11.308;2023-07-20T13:47:13;34.40;60.50
55135;DHT22;41031;44.750;11.308;2023-07-20T13:49:43;34.40;61.10
55135;DHT22;41031;44.750;11.308;2023-07-20T13:52:14;34.50;61.50
55135;DHT22;41031;44.750;11.308;2023-07-20T13:54:44;34.50;60.10
55135;DHT22;41031;44.750;11.308;2023-07-20T13:57:17;34.50;60.10
55135;DHT22;41031;44.750;11.308;2023-07-20T13:59:44;34.40;60.20
55135;DHT22;41031;44.750;11.308;2023-07-20T14:02:14;34.40;60.70
55135;DHT22;41031;44.750;11.308;2023-07-20T14:04:44;34.40;59.80
55135;DHT22;41031;44.750;11.308;2023-07-20T14:07:12;34.50;58.50
55135;DHT22;41031;44.750;11.308;2023-07-20T14:09:41;34.50;59.30
55135;DHT22;41031;44.750;11.308;2023-07-20T14:12:11;34.40;60.00
55135;DHT22;41031;44.750;11.308;2023-07-20T14:14:43;34.50;60.90
55135;DHT22;41031;44.750;11.308;2023-07-20T14:17:10;34.50;60.90
55135;DHT22;41031;44.750;11.308;2023-07-20T14:19:38;34.50;60.70
55135;DHT22;41031;44.750;11.308;2023-07-20T14:22:05;34.50;58.90
55135;DHT22;41031;44.750;11.308;2023-07-20T14:24:34;34.40;59.00
55135;DHT22;41031;44.750;11.308;2023-07-20T14:27:01;34.40;58.60
55135;DHT22;41031;44.750;11.308;2023-07-20T14:29:28;34.30;59.10
55135;DHT22;41031;44.750;11.308;2023-07-20T14:31:58;34.30;59.30
55135;DHT22;41031;44.750;11.308;2023-07-20T14:34:25;34.30;58.40
55135;DHT22;41031;44.750;11.308;2023-07-20T14:36:52;34.20;59.00
55135;DHT22;41031;44.750;11.308;2023-07-20T14:39:20;34.20;60.00
55135;DHT22;41031;44.750;11.308;2023-07-20T14:41:49;34.20;59.10
55135;DHT22;41031;44.750;11.308;2023-07-20T14:44:16;34.20;59.90
55135;DHT22;41031;44.750;11.308;2023-07-20T14:46:43;34.20;60.00
55135;DHT22;41031;44.750;11.308;2023-07-20T14:49:26;34.30;60.50
55135;DHT22;41031;44.750;11.308;2023-07-20T14:51:53;34.30;59.90
55135;DHT22;41031;44.750;11.308;2023-07-20T14:54:25;34.30;58.80
55135;DHT22;41031;44.750;11.308;2023-07-20T14:56:52;34.30;58.90
55135;DHT22;41031;44.750;11.308;2023-07-20T14:59:19;34.20;59.80
55135;DHT22;41031;44.750;11.308;2023-07-20T15:01:46;34.00;59.50
55135;DHT22;41031;44.750;11.308;2023-07-20T15:04:14;33.90;60.00
55135;DHT22;41031;44.750;11.308;2023-07-20T15:06:42;33.90;60.10
55135;DHT22;41031;44.750;11.308;2023-07-20T15:09:09;33.90;59.60
55135;DHT22;41031;44.750;11.308;2023-07-20T15:11:36;33.90;59.00
55135;DHT22;41031;44.750;11.308;2023-07-20T15:14:03;33.90;59.30
55135;DHT22;41031;44.750;11.308;2023-07-20T15:16:30;33.90;59.20
55135;DHT22;41031;44.750;11.308;2023-07-20T15:18:57;33.80;59.30
55135;DHT22;41031;44.750;11.308;2023-07-20T15:21:24;33.90;59.40
55135;DHT22;41031;44.750;11.308;2023-07-20T15:23:57;33.90;59.20
55135;DHT22;41031;44.750;11.308;2023-07-20T15:26:25;33.90;59.60
55135;DHT22;41031;44.750;11.308;2023-07-20T15:28:54;33.90;59.20
55135;DHT22;41031;44.750;11.308;2023-07-20T15:31:22;33.90;59.60
55135;DHT22;41031;44.750;11.308;2023-07-20T15:34:12;33.90;59.20
55135;DHT22;41031;44.750;11.308;2023-07-20T15:36:44;33.90;59.20
55135;DHT22;41031;44.750;11.308;2023-07-20T15:39:12;33.90;59.70
55135;DHT22;41031;44.750;11.308;2023-07-20T15:41:42;33.90;59.50
55135;DHT22;41031;44.750;11.308;2023-07-20T15:44:08;33.90;60.00
55135;DHT22;41031;44.750;11.308;2023-07-20T15:49:08;33.90;59.50